Old Fort, ID

5:01 AM MDT on March 25, 2017 (GMT -0600)
MSQFI1 | | Change Station
Active Advisory: Flood Warning

Elev 6238 ft 44.77 °N, 116.25 °W | Updated 6 minutes ago

Overcast
Overcast
32.0 °F
Feels Like 32 °F
N
-
Wind Variable Wind from North

Today
High -- | Low -- °F
--% Chance of Precip.
Yesterday
High -- | Low -- °F
Precip. -- in
Pressure 30.07 in
Visibility 9.0 miles
Clouds Few 700 ft
Scattered Clouds 2000 ft
Mostly Cloudy 5000 ft
Windchill 32 °F
Dew Point Not available.
Humidity Not available.
Rainfall 0.14 in
Snow Depth Not available.
7:38 AM 8:04 PM
Waning Crescent, 9% visible
METAR KMYL 251051Z AUTO 00000KT 9SM FEW007 SCT020 BKN050 00/M01 A3002 RMK AO2 SLP181 T00001011
Pressure 30.07 in
Visibility 9.0 miles
Clouds Few 700 ft
Scattered Clouds 2000 ft
Mostly Cloudy 5000 ft
Windchill 32 °F
Dew Point Not available.
Humidity Not available.
Rainfall 0.14 in
Snow Depth Not available.
7:38 AM 8:04 PM
Waning Crescent, 9% visible
METAR KMYL 251051Z AUTO 00000KT 9SM FEW007 SCT020 BKN050 00/M01 A3002 RMK AO2 SLP181 T00001011

Get Your Daily Forecast Email!

Thanks for signing up!

Be on the lookout for a verification email in your inbox.

You'll start receiving severe weather alerts in your inbox..

×

10-Day Weather Forecast

Almanac

Astronomy

Mar. 25, 2017 Rise Set
Actual Time
Civil Twilight
Nautical Twilight
Astronomical Twilight
Moon
Length of Visible Light
Length of Day
Tomorrow will be .
, % of the Moon is Illuminated

Today's Extremes

State Highs State Lows

Community

WunderPhotos

Upload Photos

1,962,540 photos uploaded!

WunderBlog® & News

Nearby

Air Quality

  Air Quality AQ Index Pollutant
Not available.

Snow Depth

Station Depth Elevation

Earthquake Activity

City Distance Mag. Time & Date
Minimum magnitude displayed is 2.5.

Earthquake Activity

City Distance Mag. Time & Date
Minimum magnitude displayed is 2.5.

Coastal Water Temperatures

Place Temperature

Stations

Nearby Weather Stations

Station Location Temp. Windchill Dew Point Humidity Wind Precip. Elev Updated Type
                   

Watches & Warnings

Flood Warning
Issued: 8:05 PM MDT Mar. 24, 2017 – National Weather Service

... Flood Warning extended until Sunday April 02... the Flood Warning
continues for the Snake River near Weiser.
* Until Sunday April 02... or until the warning is cancelled.
* At 7:00 PM Friday the stage was 12.0 feet.
* Minor flooding is occurring and minor flooding is forecast.
* Flood stage is 12.0 feet.
* Forecast... the river will continue rising to near 12.9 feet by
Friday early afternoon. The river will fall below flood stage
Sunday afternoon.
* Impact... at 12.0 feet... flooding of agricultural land near the river
is likely in Malheur County, Oregon and in Washington County,
Idaho. Mortimer Road in Weiser will be flooded.


Lat... Lon 4431 11703 4417 11686 4405 11688 4406 11705
      4427 11714